Time;durP1;ratioP1;P1;durP2;ratioP2;P2;SDS_P1;SDS_P2;PMS_P1;PMS_P2;Temp;Humidity;BMP_temperature;BMP_pressure;BME280_temperature;BME280_humidity;BME280_pressure;Samples;Min_cycle;Max_cycle;Signal;HPM_P1;HPM_P2
2022/08/14 00:02:18;;;;;;;6.50;4.00;;;;;;;;;;5036306;28;20064;-75
2022/08/14 00:04:43;;;;;;;5.32;3.80;;;;;;;;;;5042418;28;20045;-75
2022/08/14 00:07:10;;;;;;;4.32;3.92;;;;;;;;;;5043025;28;20052;-75
2022/08/14 00:09:37;;;;;;;7.22;4.10;;;;;;;;;;5037178;28;20101;-75
2022/08/14 00:12:04;;;;;;;4.30;3.90;;;;;;;;;;5053612;28;20056;-75
2022/08/14 00:14:30;;;;;;;5.68;4.60;;;;;;;;;;5037377;28;21214;-75
2022/08/14 00:16:56;;;;;;;4.07;3.75;;;;;;;;;;5035381;28;20523;-75
2022/08/14 00:19:23;;;;;;;6.28;4.15;;;;;;;;;;5038138;28;20053;-75
2022/08/14 00:21:50;;;;;;;6.90;4.32;;;;;;;;;;5034146;28;20088;-75
2022/08/14 00:24:17;;;;;;;4.90;4.28;;;;;;;;;;5030570;28;20060;-75
2022/08/14 00:26:43;;;;;;;5.78;4.00;;;;;;;;;;5035983;28;20187;-75
2022/08/14 00:29:09;;;;;;;4.68;4.20;;;;;;;;;;5032423;28;20053;-75
2022/08/14 00:31:35;;;;;;;4.97;4.45;;;;;;;;;;5042072;28;20124;-75
2022/08/14 00:34:01;;;;;;;5.60;4.30;;;;;;;;;;5038767;28;20098;-75
2022/08/14 00:36:27;;;;;;;4.95;4.40;;;;;;;;;;5031837;28;20037;-75
2022/08/14 00:38:53;;;;;;;4.88;4.45;;;;;;;;;;5035452;28;20042;-75
2022/08/14 00:41:19;;;;;;;5.65;4.60;;;;;;;;;;5068810;28;20063;-75
2022/08/14 00:43:45;;;;;;;4.78;4.25;;;;;;;;;;5040285;28;20041;-75
2022/08/14 00:46:12;;;;;;;5.30;4.10;;;;;;;;;;5044961;28;20044;-75
2022/08/14 00:48:38;;;;;;;5.72;4.70;;;;;;;;;;5036200;28;20405;-75
2022/08/14 00:51:08;;;;;;;5.97;4.78;;;;;;;;;;5035473;28;20073;-75
2022/08/14 00:53:35;;;;;;;5.40;4.90;;;;;;;;;;5035649;28;20037;-75
2022/08/14 00:56:01;;;;;;;5.10;4.43;;;;;;;;;;5035457;28;20051;-75
2022/08/14 00:58:31;;;;;;;6.18;4.80;;;;;;;;;;5040493;28;20041;-75
2022/08/14 01:01:02;;;;;;;5.45;4.70;;;;;;;;;;5031158;28;20044;-75
2022/08/14 01:03:28;;;;;;;5.15;4.65;;;;;;;;;;5038711;28;20133;-75
2022/08/14 01:05:54;;;;;;;5.05;4.63;;;;;;;;;;5036203;28;20048;-75
2022/08/14 01:08:22;;;;;;;9.95;5.50;;;;;;;;;;5040638;28;20049;-75
2022/08/14 01:10:51;;;;;;;6.25;4.85;;;;;;;;;;5035104;28;20048;-75
2022/08/14 01:13:22;;;;;;;6.00;5.00;;;;;;;;;;5064004;28;20049;-75
2022/08/14 01:15:55;;;;;;;5.50;5.00;;;;;;;;;;5031276;28;20052;-75
2022/08/14 01:21:13;;;;;;;6.55;4.93;;;;;;;;;;5032613;28;20046;-75
2022/08/14 01:23:40;;;;;;;5.90;4.68;;;;;;;;;;5037990;28;20083;-75
2022/08/14 01:26:07;;;;;;;5.95;4.82;;;;;;;;;;5036925;28;20048;-75
2022/08/14 01:28:36;;;;;;;5.63;5.13;;;;;;;;;;5037125;28;20504;-75
2022/08/14 01:31:04;;;;;;;5.75;5.25;;;;;;;;;;5032011;28;20054;-75
2022/08/14 01:33:31;;;;;;;6.50;5.10;;;;;;;;;;5033618;28;20053;-75
2022/08/14 01:35:59;;;;;;;5.60;5.20;;;;;;;;;;5068047;28;20418;-75
2022/08/14 01:38:30;;;;;;;6.32;5.72;;;;;;;;;;5039143;28;20052;-75
2022/08/14 01:40:56;;;;;;;6.50;5.90;;;;;;;;;;5032167;28;20060;-75
2022/08/14 01:43:22;;;;;;;6.63;5.95;;;;;;;;;;5035685;28;20055;-75
2022/08/14 01:45:52;;;;;;;8.32;6.03;;;;;;;;;;5037773;28;20053;-75
2022/08/14 01:48:18;;;;;;;7.30;6.22;;;;;;;;;;5036464;28;20041;-75
2022/08/14 01:50:44;;;;;;;6.93;6.10;;;;;;;;;;5032682;28;20044;-75
2022/08/14 01:53:11;;;;;;;6.70;5.70;;;;;;;;;;5043020;28;20041;-75
2022/08/14 01:55:38;;;;;;;6.78;5.72;;;;;;;;;;5030485;28;20045;-75
2022/08/14 01:58:04;;;;;;;6.15;5.50;;;;;;;;;;5036810;28;20063;-75
2022/08/14 02:00:30;;;;;;;6.57;5.95;;;;;;;;;;5030449;28;20098;-75
2022/08/14 02:02:57;;;;;;;7.28;5.93;;;;;;;;;;5033682;28;20052;-75
2022/08/14 02:05:28;;;;;;;6.35;5.70;;;;;;;;;;5034811;28;20115;-75
2022/08/14 02:07:55;;;;;;;6.80;5.53;;;;;;;;;;5037811;28;20045;-75
2022/08/14 02:10:27;;;;;;;6.70;6.10;;;;;;;;;;5036593;28;20480;-75
2022/08/14 02:12:55;;;;;;;7.03;6.07;;;;;;;;;;5032844;28;20052;-75
2022/08/14 02:15:22;;;;;;;7.40;6.40;;;;;;;;;;5030443;28;20057;-75
2022/08/14 02:17:48;;;;;;;6.45;5.95;;;;;;;;;;5039007;28;20053;-75
2022/08/14 02:20:16;;;;;;;7.22;6.30;;;;;;;;;;5029214;28;20180;-75
2022/08/14 02:22:42;;;;;;;6.75;5.85;;;;;;;;;;5031897;28;20040;-75
2022/08/14 02:25:09;;;;;;;6.75;6.05;;;;;;;;;;5035861;28;20049;-75
2022/08/14 02:27:36;;;;;;;7.90;6.32;;;;;;;;;;5033962;28;20398;-75
2022/08/14 02:30:02;;;;;;;6.68;5.97;;;;;;;;;;5031947;28;20072;-75
2022/08/14 02:32:36;;;;;;;6.47;5.97;;;;;;;;;;5032876;28;20060;-75
2022/08/14 02:35:09;;;;;;;7.88;6.90;;;;;;;;;;5041368;28;20115;-75
2022/08/14 02:37:35;;;;;;;6.70;6.20;;;;;;;;;;5034478;28;20466;-75
2022/08/14 02:40:01;;;;;;;6.95;6.35;;;;;;;;;;5039864;28;20049;-75
2022/08/14 02:42:27;;;;;;;7.22;6.57;;;;;;;;;;5038595;28;20045;-75
2022/08/14 02:44:53;;;;;;;6.80;6.28;;;;;;;;;;5041637;28;20405;-75
2022/08/14 02:47:19;;;;;;;7.43;6.40;;;;;;;;;;5042349;28;20045;-75
2022/08/14 02:49:45;;;;;;;7.00;6.32;;;;;;;;;;5036813;28;20348;-75
2022/08/14 02:52:11;;;;;;;6.95;6.35;;;;;;;;;;5038359;28;20811;-75
2022/08/14 02:54:39;;;;;;;7.47;6.78;;;;;;;;;;5035502;28;20481;-75
2022/08/14 02:57:06;;;;;;;7.15;6.45;;;;;;;;;;5035507;28;20049;-75
2022/08/14 02:59:32;;;;;;;7.05;5.97;;;;;;;;;;5035616;28;20129;-75
2022/08/14 03:01:59;;;;;;;7.05;6.45;;;;;;;;;;5039908;28;20054;-75
2022/08/14 03:04:27;;;;;;;7.50;6.80;;;;;;;;;;5042039;28;20210;-75
2022/08/14 03:06:53;;;;;;;7.57;6.78;;;;;;;;;;5036083;28;20444;-75
2022/08/14 03:09:19;;;;;;;7.50;6.80;;;;;;;;;;5035858;28;20053;-75
2022/08/14 03:11:45;;;;;;;8.63;6.95;;;;;;;;;;5037960;28;20048;-75
2022/08/14 03:14:12;;;;;;;8.00;7.25;;;;;;;;;;5034438;28;20048;-75
2022/08/14 03:16:40;;;;;;;7.70;7.00;;;;;;;;;;5049468;28;20107;-75
2022/08/14 03:19:07;;;;;;;8.15;6.97;;;;;;;;;;5039639;28;20057;-75
2022/08/14 03:21:33;;;;;;;9.93;7.32;;;;;;;;;;5040277;28;20489;-75
2022/08/14 03:24:21;;;;;;;8.30;6.93;;;;;;;;;;5041940;28;20110;-75
2022/08/14 03:26:46;;;;;;;7.47;6.60;;;;;;;;;;5041957;28;20041;-75
2022/08/14 03:29:13;;;;;;;7.88;7.07;;;;;;;;;;5039093;28;20144;-75
2022/08/14 03:31:40;;;;;;;8.25;7.55;;;;;;;;;;5039360;28;20048;-75
2022/08/14 03:34:11;;;;;;;10.70;7.57;;;;;;;;;;5042141;28;20060;-75
2022/08/14 03:36:39;;;;;;;8.05;7.35;;;;;;;;;;5038552;28;20094;-75
2022/08/14 03:39:06;;;;;;;8.52;7.57;;;;;;;;;;5038878;28;20057;-75
2022/08/14 03:41:32;;;;;;;8.23;7.45;;;;;;;;;;5036495;28;20398;-75
2022/08/14 03:44:00;;;;;;;8.50;7.70;;;;;;;;;;5038726;28;20048;-75
2022/08/14 03:46:27;;;;;;;8.10;7.40;;;;;;;;;;5040833;28;20052;-75
2022/08/14 03:48:53;;;;;;;8.13;7.32;;;;;;;;;;5036691;28;20037;-75
2022/08/14 03:51:20;;;;;;;8.43;7.45;;;;;;;;;;5033587;28;20045;-75
2022/08/14 03:53:47;;;;;;;8.50;7.60;;;;;;;;;;5036599;28;20056;-75
2022/08/14 03:56:16;;;;;;;8.27;7.45;;;;;;;;;;5038680;28;20113;-75
2022/08/14 03:58:44;;;;;;;8.60;7.80;;;;;;;;;;5034365;28;20052;-75
2022/08/14 04:01:10;;;;;;;8.43;7.63;;;;;;;;;;5038830;28;20080;-75
2022/08/14 04:03:36;;;;;;;9.10;8.00;;;;;;;;;;5039750;28;20118;-75
2022/08/14 04:06:02;;;;;;;8.93;8.07;;;;;;;;;;5040529;28;20041;-75
2022/08/14 04:08:28;;;;;;;9.18;8.38;;;;;;;;;;5032771;28;20094;-75
2022/08/14 04:10:58;;;;;;;9.05;8.25;;;;;;;;;;5043122;28;20037;-75
2022/08/14 04:13:24;;;;;;;9.40;8.60;;;;;;;;;;5036923;28;20504;-75
2022/08/14 04:15:50;;;;;;;9.45;8.52;;;;;;;;;;5034046;28;20049;-75
2022/08/14 04:18:16;;;;;;;9.43;8.55;;;;;;;;;;5034298;28;20040;-75
2022/08/14 04:20:42;;;;;;;9.45;8.55;;;;;;;;;;5044579;28;20404;-75
2022/08/14 04:23:09;;;;;;;9.10;8.20;;;;;;;;;;5032318;28;20077;-75
2022/08/14 04:25:36;;;;;;;9.27;8.48;;;;;;;;;;5034963;28;20077;-75
2022/08/14 04:28:06;;;;;;;9.45;8.43;;;;;;;;;;5033426;28;20049;-75
2022/08/14 04:30:37;;;;;;;9.25;8.35;;;;;;;;;;5035953;28;20045;-75
2022/08/14 04:33:04;;;;;;;9.68;8.77;;;;;;;;;;5038271;28;20048;-75
2022/08/14 04:35:30;;;;;;;9.13;8.30;;;;;;;;;;5030470;28;20103;-75
2022/08/14 04:43:35;;;;;;;9.43;8.43;;;;;;;;;;5043940;28;20048;-75
2022/08/14 04:46:04;;;;;;;9.75;8.35;;;;;;;;;;5038411;28;20098;-75
2022/08/14 04:48:30;;;;;;;9.48;8.63;;;;;;;;;;5031872;28;20052;-75
2022/08/14 04:50:56;;;;;;;9.30;8.43;;;;;;;;;;5031892;28;20057;-75
2022/08/14 04:53:23;;;;;;;9.52;8.38;;;;;;;;;;5040555;28;20148;-75
2022/08/14 04:55:50;;;;;;;9.15;8.18;;;;;;;;;;5032837;28;20063;-75
2022/08/14 04:58:23;;;;;;;9.07;8.20;;;;;;;;;;5038687;28;20407;-75
2022/08/14 05:00:50;;;;;;;9.27;8.38;;;;;;;;;;5041808;28;20101;-75
2022/08/14 05:03:19;;;;;;;9.35;8.45;;;;;;;;;;5043023;28;20044;-76
2022/08/14 05:05:45;;;;;;;13.00;8.90;;;;;;;;;;5037711;28;20186;-75
2022/08/14 05:08:11;;;;;;;9.13;8.23;;;;;;;;;;5039868;28;20119;-75
2022/08/14 05:10:41;;;;;;;9.13;8.32;;;;;;;;;;5040786;28;20052;-75
2022/08/14 05:13:08;;;;;;;9.10;8.20;;;;;;;;;;5041776;28;20036;-75
2022/08/14 05:15:35;;;;;;;9.40;8.50;;;;;;;;;;5031591;28;20049;-75
2022/08/14 05:18:02;;;;;;;9.85;8.95;;;;;;;;;;5036608;28;20048;-75
2022/08/14 05:20:29;;;;;;;10.13;8.38;;;;;;;;;;5036858;28;20037;-75
2022/08/14 05:22:56;;;;;;;9.68;8.75;;;;;;;;;;5036504;28;20042;-75
2022/08/14 05:25:22;;;;;;;10.00;9.13;;;;;;;;;;5030196;28;20119;-75
2022/08/14 05:27:48;;;;;;;10.35;9.35;;;;;;;;;;5034225;28;20484;-75
2022/08/14 05:30:14;;;;;;;10.43;9.43;;;;;;;;;;5029297;28;20177;-75
2022/08/14 05:32:41;;;;;;;11.27;9.23;;;;;;;;;;5047430;28;20371;-75
2022/08/14 05:35:08;;;;;;;9.77;8.88;;;;;;;;;;5042548;28;20043;-75
2022/08/14 05:37:34;;;;;;;10.52;9.25;;;;;;;;;;5030394;28;20053;-75
2022/08/14 05:40:00;;;;;;;10.27;9.15;;;;;;;;;;5030572;28;20086;-75
2022/08/14 05:42:26;;;;;;;10.68;9.63;;;;;;;;;;5031100;28;20135;-75
2022/08/14 05:44:52;;;;;;;9.90;9.00;;;;;;;;;;5039497;28;20057;-75
2022/08/14 05:47:18;;;;;;;10.45;9.35;;;;;;;;;;5038209;28;20044;-75
2022/08/14 05:49:44;;;;;;;10.32;9.18;;;;;;;;;;5032294;28;20037;-75
2022/08/14 05:52:10;;;;;;;9.73;8.73;;;;;;;;;;5040697;28;20044;-75
2022/08/14 05:54:36;;;;;;;10.15;9.25;;;;;;;;;;5045020;28;20532;-75
2022/08/14 05:57:03;;;;;;;9.90;8.98;;;;;;;;;;5027614;28;20046;-75
2022/08/14 05:59:29;;;;;;;9.80;8.88;;;;;;;;;;5032286;28;20110;-75
2022/08/14 06:01:55;;;;;;;10.57;9.57;;;;;;;;;;5034070;28;20069;-75
2022/08/14 06:04:21;;;;;;;9.43;8.52;;;;;;;;;;5041885;28;20045;-75
2022/08/14 06:06:47;;;;;;;9.43;8.63;;;;;;;;;;5040673;28;20047;-75
2022/08/14 06:09:13;;;;;;;10.02;9.02;;;;;;;;;;5041105;28;20064;-75
2022/08/14 06:11:39;;;;;;;9.90;9.00;;;;;;;;;;5040456;28;20047;-75
2022/08/14 06:14:05;;;;;;;9.77;8.73;;;;;;;;;;5043223;28;20113;-75
2022/08/14 06:16:32;;;;;;;9.70;8.88;;;;;;;;;;5037007;28;20061;-75
2022/08/14 06:18:58;;;;;;;10.02;9.07;;;;;;;;;;5038199;28;20311;-75
2022/08/14 06:21:25;;;;;;;9.27;8.32;;;;;;;;;;5042827;28;20040;-75
2022/08/14 06:23:51;;;;;;;9.85;8.70;;;;;;;;;;5034134;28;20054;-75
2022/08/14 06:26:17;;;;;;;9.63;8.57;;;;;;;;;;5036032;28;20041;-75
2022/08/14 06:28:43;;;;;;;9.65;8.75;;;;;;;;;;5037181;28;20132;-75
2022/08/14 06:31:10;;;;;;;9.70;8.70;;;;;;;;;;5037287;28;20168;-75
2022/08/14 06:33:36;;;;;;;9.70;8.80;;;;;;;;;;5038057;28;20493;-75
2022/08/14 06:36:05;;;;;;;10.95;8.90;;;;;;;;;;5034254;28;20051;-75
2022/08/14 06:38:31;;;;;;;9.18;8.43;;;;;;;;;;5070859;28;20186;-75
2022/08/14 06:40:57;;;;;;;9.68;8.88;;;;;;;;;;5035102;28;20041;-75
2022/08/14 06:43:23;;;;;;;9.52;8.45;;;;;;;;;;5034174;28;20063;-75
2022/08/14 06:45:50;;;;;;;9.80;8.77;;;;;;;;;;5034981;28;20049;-75
2022/08/14 06:48:18;;;;;;;9.02;8.13;;;;;;;;;;5031667;28;20051;-75
2022/08/14 06:50:44;;;;;;;9.38;8.07;;;;;;;;;;5041879;28;20055;-76
2022/08/14 06:53:13;;;;;;;9.20;8.05;;;;;;;;;;5046556;28;20094;-75
2022/08/14 06:55:40;;;;;;;9.05;8.10;;;;;;;;;;5039773;28;20055;-75
2022/08/14 06:58:10;;;;;;;9.13;8.13;;;;;;;;;;5035915;28;20048;-75
2022/08/14 07:00:36;;;;;;;13.98;8.25;;;;;;;;;;5047401;28;20045;-75
2022/08/14 07:05:47;;;;;;;9.27;8.38;;;;;;;;;;5040367;28;20041;-75
2022/08/14 07:08:14;;;;;;;8.98;7.88;;;;;;;;;;5043966;28;20146;-75
2022/08/14 07:10:42;;;;;;;8.88;8.02;;;;;;;;;;5046018;28;20575;-75
2022/08/14 07:13:09;;;;;;;8.27;7.57;;;;;;;;;;5045180;28;20056;-75
2022/08/14 07:15:35;;;;;;;8.68;7.80;;;;;;;;;;5045099;28;20045;-75
2022/08/14 07:18:02;;;;;;;8.43;7.72;;;;;;;;;;5035583;28;20091;-75
2022/08/14 07:20:28;;;;;;;9.05;8.25;;;;;;;;;;5036132;28;20072;-75
2022/08/14 07:22:59;;;;;;;8.88;8.02;;;;;;;;;;5042630;28;20500;-75
2022/08/14 07:25:25;;;;;;;8.07;7.43;;;;;;;;;;5033604;28;20069;-75
2022/08/14 07:27:51;;;;;;;10.85;9.85;;;;;;;;;;5035756;28;20059;-75
2022/08/14 07:30:18;;;;;;;9.18;8.32;;;;;;;;;;5037823;28;20394;-75
2022/08/14 07:32:44;;;;;;;9.05;8.25;;;;;;;;;;5051056;28;20055;-75
2022/08/14 07:35:10;;;;;;;8.68;7.85;;;;;;;;;;5050745;28;20041;-75
2022/08/14 07:37:36;;;;;;;11.05;8.07;;;;;;;;;;5041502;28;20080;-75
2022/08/14 07:40:04;;;;;;;9.80;8.10;;;;;;;;;;5037703;28;20051;-75
2022/08/14 07:42:31;;;;;;;9.05;8.15;;;;;;;;;;5056649;28;20049;-75
2022/08/14 07:44:57;;;;;;;8.63;7.82;;;;;;;;;;5053608;28;20048;-74
2022/08/14 07:47:23;;;;;;;8.68;7.90;;;;;;;;;;5053413;28;20041;-74
2022/08/14 07:50:12;;;;;;;8.07;7.28;;;;;;;;;;5050928;28;20073;-75
2022/08/14 07:52:39;;;;;;;8.70;7.85;;;;;;;;;;5058334;28;20044;-75
2022/08/14 07:55:06;;;;;;;8.05;7.22;;;;;;;;;;5045063;28;20380;-74
2022/08/14 07:57:32;;;;;;;8.43;7.63;;;;;;;;;;5045609;28;20072;-74
2022/08/14 07:59:58;;;;;;;7.90;7.20;;;;;;;;;;5048221;28;20043;-74
2022/08/14 08:02:27;;;;;;;8.60;7.65;;;;;;;;;;5041950;28;20083;-75
2022/08/14 08:04:53;;;;;;;7.50;6.90;;;;;;;;;;5046178;28;20102;-75
2022/08/14 08:07:20;;;;;;;8.90;7.30;;;;;;;;;;5046957;28;20095;-75
2022/08/14 08:09:53;;;;;;;11.35;7.40;;;;;;;;;;5047232;28;20040;-77
2022/08/14 08:12:19;;;;;;;7.72;7.05;;;;;;;;;;5046197;28;20048;-78
2022/08/14 08:14:47;;;;;;;7.55;6.90;;;;;;;;;;5047980;28;20120;-76
2022/08/14 08:17:14;;;;;;;8.25;7.43;;;;;;;;;;5039362;28;20037;-75
2022/08/14 08:19:40;;;;;;;7.65;6.85;;;;;;;;;;5042639;28;20129;-76
2022/08/14 08:22:06;;;;;;;8.00;7.30;;;;;;;;;;5047068;28;20136;-76
2022/08/14 08:24:34;;;;;;;7.57;6.80;;;;;;;;;;5038140;28;20064;-75
2022/08/14 08:27:01;;;;;;;7.82;7.13;;;;;;;;;;5051506;28;20531;-75
2022/08/14 08:29:27;;;;;;;7.85;7.05;;;;;;;;;;5049732;28;20052;-76
2022/08/14 08:31:53;;;;;;;7.30;6.68;;;;;;;;;;5051893;28;20049;-76
2022/08/14 08:34:20;;;;;;;7.43;6.72;;;;;;;;;;5044982;28;20529;-76
2022/08/14 08:36:46;;;;;;;7.45;6.75;;;;;;;;;;5053099;28;20508;-75
2022/08/14 08:39:12;;;;;;;7.47;6.88;;;;;;;;;;5051428;28;20504;-76
2022/08/14 08:41:44;;;;;;;7.80;6.55;;;;;;;;;;5045836;28;20057;-75
2022/08/14 08:44:10;;;;;;;6.82;6.22;;;;;;;;;;5042998;28;20046;-76
2022/08/14 08:46:36;;;;;;;7.32;6.63;;;;;;;;;;5050700;28;20045;-74
2022/08/14 08:49:02;;;;;;;8.35;6.63;;;;;;;;;;5058653;28;20091;-75
2022/08/14 08:51:32;;;;;;;14.55;13.10;;;;;;;;;;5050251;28;20493;-75
2022/08/14 08:54:09;;;;;;;7.45;6.85;;;;;;;;;;5043490;28;20976;-76
2022/08/14 08:56:36;;;;;;;6.55;5.95;;;;;;;;;;5057665;28;20067;-74
2022/08/14 08:59:03;;;;;;;6.57;5.93;;;;;;;;;;5064704;28;20041;-75
2022/08/14 09:01:30;;;;;;;6.60;6.00;;;;;;;;;;5052192;28;20040;-75
2022/08/14 09:04:05;;;;;;;6.07;5.40;;;;;;;;;;5045350;28;20555;-74
2022/08/14 09:06:31;;;;;;;6.13;5.63;;;;;;;;;;5046361;28;20049;-74
2022/08/14 09:08:57;;;;;;;6.55;6.00;;;;;;;;;;5062008;28;20131;-75
2022/08/14 09:11:23;;;;;;;6.50;5.55;;;;;;;;;;5083305;28;20539;-75
2022/08/14 09:13:50;;;;;;;6.75;6.15;;;;;;;;;;5056831;28;20124;-74
2022/08/14 09:16:19;;;;;;;6.18;5.45;;;;;;;;;;5056095;28;20527;-74
2022/08/14 09:18:46;;;;;;;7.30;5.25;;;;;;;;;;5062205;28;20044;-75
2022/08/14 09:21:12;;;;;;;6.03;5.53;;;;;;;;;;5057374;28;20048;-75
2022/08/14 09:23:39;;;;;;;6.13;5.53;;;;;;;;;;5053599;28;20057;-74
2022/08/14 09:26:05;;;;;;;8.35;5.50;;;;;;;;;;5046518;28;20131;-75
2022/08/14 09:28:31;;;;;;;6.00;5.50;;;;;;;;;;5044385;28;20055;-75
2022/08/14 09:30:58;;;;;;;5.65;5.25;;;;;;;;;;5044086;28;20548;-75
2022/08/14 09:33:32;;;;;;;5.95;5.38;;;;;;;;;;5048015;28;20033;-74
2022/08/14 09:35:57;;;;;;;5.57;5.07;;;;;;;;;;5058838;28;20044;-75
2022/08/14 09:38:42;;;;;;;5.50;5.10;;;;;;;;;;5044262;28;20033;-75
2022/08/14 09:41:27;;;;;;;5.30;4.90;;;;;;;;;;5047283;28;20040;-75
2022/08/14 09:44:02;;;;;;;5.75;5.25;;;;;;;;;;5052704;28;20391;-74
2022/08/14 09:46:29;;;;;;;6.15;5.65;;;;;;;;;;5054200;28;20833;-74
2022/08/14 09:48:59;;;;;;;6.03;5.43;;;;;;;;;;5051619;28;20044;-75
2022/08/14 09:51:26;;;;;;;5.97;5.50;;;;;;;;;;5057100;28;20049;-75
2022/08/14 09:54:11;;;;;;;5.97;5.38;;;;;;;;;;5062067;28;20385;-75
2022/08/14 09:56:46;;;;;;;6.00;5.45;;;;;;;;;;5055937;28;20049;-75
2022/08/14 09:59:13;;;;;;;5.15;4.75;;;;;;;;;;5044287;28;20053;-75
2022/08/14 10:01:40;;;;;;;5.47;5.07;;;;;;;;;;5048194;28;20112;-75
2022/08/14 10:04:17;;;;;;;6.80;5.18;;;;;;;;;;5046057;28;20049;-75
2022/08/14 10:06:44;;;;;;;5.55;5.05;;;;;;;;;;5059757;28;20053;-75
2022/08/14 10:09:10;;;;;;;5.38;4.97;;;;;;;;;;5052227;28;20033;-76
2022/08/14 10:11:37;;;;;;;5.63;5.10;;;;;;;;;;5056908;28;20172;-72
2022/08/14 10:14:18;;;;;;;5.75;5.20;;;;;;;;;;5046442;28;20037;-73
2022/08/14 10:16:46;;;;;;;5.70;5.20;;;;;;;;;;5087956;28;20083;-73
2022/08/14 10:19:14;;;;;;;5.25;4.85;;;;;;;;;;5051888;28;20056;-73
2022/08/14 10:21:42;;;;;;;6.70;5.05;;;;;;;;;;5050455;28;20103;-73
2022/08/14 10:24:12;;;;;;;5.75;5.25;;;;;;;;;;5049532;28;21026;-72
2022/08/14 10:26:42;;;;;;;5.32;4.80;;;;;;;;;;5038363;28;20064;-73
2022/08/14 10:29:10;;;;;;;5.72;5.20;;;;;;;;;;5082230;28;20044;-72
2022/08/14 10:31:36;;;;;;;5.28;4.85;;;;;;;;;;5044942;28;20049;-72
2022/08/14 10:34:10;;;;;;;5.50;5.00;;;;;;;;;;5048248;28;20045;-73
2022/08/14 10:36:37;;;;;;;7.75;4.72;;;;;;;;;;5038698;28;20045;-73
2022/08/14 10:39:05;;;;;;;5.68;4.93;;;;;;;;;;5040440;28;20377;-73
2022/08/14 10:41:37;;;;;;;4.97;4.57;;;;;;;;;;5040921;28;20135;-74
2022/08/14 10:44:07;;;;;;;8.32;5.13;;;;;;;;;;5059400;28;20098;-74
2022/08/14 10:46:46;;;;;;;5.68;4.85;;;;;;;;;;5054921;28;20056;-75
2022/08/14 10:49:17;;;;;;;5.32;4.93;;;;;;;;;;5061762;28;20044;-75
2022/08/14 10:51:54;;;;;;;5.78;4.78;;;;;;;;;;5052835;28;20420;-74
2022/08/14 10:54:30;;;;;;;5.00;4.60;;;;;;;;;;5060569;28;20037;-74
2022/08/14 10:56:56;;;;;;;4.97;4.40;;;;;;;;;;5043117;28;20077;-75
2022/08/14 10:59:22;;;;;;;6.68;5.03;;;;;;;;;;5061136;28;20044;-75
2022/08/14 11:01:48;;;;;;;5.40;4.90;;;;;;;;;;5042219;28;20490;-74
2022/08/14 11:04:24;;;;;;;5.20;4.70;;;;;;;;;;5044328;28;20140;-74
2022/08/14 11:06:54;;;;;;;5.25;4.85;;;;;;;;;;5058914;28;20055;-75
2022/08/14 11:09:20;;;;;;;5.00;4.60;;;;;;;;;;5045647;28;20040;-76
2022/08/14 11:11:48;;;;;;;4.95;4.38;;;;;;;;;;5054813;28;20131;-74
2022/08/14 11:14:16;;;;;;;5.13;4.72;;;;;;;;;;5038247;28;20055;-75
2022/08/14 11:16:43;;;;;;;6.20;4.47;;;;;;;;;;5046651;28;20041;-74
2022/08/14 11:19:11;;;;;;;8.05;4.95;;;;;;;;;;5044669;28;20045;-74
2022/08/14 11:21:39;;;;;;;5.03;4.63;;;;;;;;;;5050865;28;20052;-75
2022/08/14 11:24:06;;;;;;;4.95;4.55;;;;;;;;;;5044459;28;20096;-74
2022/08/14 11:26:33;;;;;;;4.75;4.45;;;;;;;;;;5054520;28;20080;-74
2022/08/14 11:28:59;;;;;;;4.95;4.60;;;;;;;;;;5084973;28;20055;-74
2022/08/14 11:31:28;;;;;;;5.38;4.97;;;;;;;;;;5053171;28;20088;-75
2022/08/14 11:33:56;;;;;;;5.20;4.70;;;;;;;;;;5062090;28;20479;-74
2022/08/14 11:36:27;;;;;;;5.40;4.90;;;;;;;;;;5043479;28;20385;-75
2022/08/14 11:38:53;;;;;;;5.28;4.78;;;;;;;;;;5053559;28;20052;-74
2022/08/14 11:41:19;;;;;;;5.25;4.85;;;;;;;;;;5057429;28;20052;-74
2022/08/14 11:43:47;;;;;;;5.70;4.53;;;;;;;;;;5054950;28;20375;-72
2022/08/14 11:46:14;;;;;;;5.15;4.70;;;;;;;;;;5040777;28;20049;-74
2022/08/14 11:48:48;;;;;;;5.25;4.75;;;;;;;;;;5051769;28;20045;-76
2022/08/14 11:51:19;;;;;;;6.40;5.28;;;;;;;;;;5059605;28;20472;-73
2022/08/14 11:53:50;;;;;;;5.43;5.03;;;;;;;;;;5048367;28;20076;-73
2022/08/14 11:56:16;;;;;;;5.47;4.90;;;;;;;;;;5057919;28;20484;-74
2022/08/14 11:58:42;;;;;;;5.07;4.68;;;;;;;;;;5064498;28;20044;-74
2022/08/14 12:01:08;;;;;;;5.25;4.75;;;;;;;;;;5063156;28;20091;-74
2022/08/14 12:03:35;;;;;;;5.50;5.00;;;;;;;;;;5058955;28;20179;-73
2022/08/14 12:06:06;;;;;;;5.47;5.05;;;;;;;;;;5066790;28;20040;-74
2022/08/14 12:08:35;;;;;;;5.00;4.60;;;;;;;;;;5060136;28;20037;-74
2022/08/14 12:11:02;;;;;;;4.50;4.20;;;;;;;;;;5064008;28;20044;-74
2022/08/14 12:13:32;;;;;;;5.20;4.80;;;;;;;;;;5053346;28;20107;-74
2022/08/14 12:16:01;;;;;;;5.10;4.70;;;;;;;;;;5064026;28;20048;-74
2022/08/14 12:18:31;;;;;;;5.45;4.35;;;;;;;;;;5058957;28;20059;-74
2022/08/14 12:20:57;;;;;;;5.65;4.68;;;;;;;;;;5065662;28;20444;-74
2022/08/14 12:23:24;;;;;;;5.63;4.57;;;;;;;;;;5055479;28;20045;-74
2022/08/14 12:26:01;;;;;;;6.63;4.80;;;;;;;;;;5051602;28;20080;-73
2022/08/14 12:28:27;;;;;;;4.82;4.50;;;;;;;;;;5060861;28;20041;-74
2022/08/14 12:30:53;;;;;;;4.63;4.25;;;;;;;;;;5052676;28;20044;-74
2022/08/14 12:33:29;;;;;;;4.80;4.40;;;;;;;;;;5062717;28;20047;-74
2022/08/14 12:35:57;;;;;;;4.80;4.40;;;;;;;;;;5053951;28;20044;-74
2022/08/14 12:38:36;;;;;;;4.70;4.28;;;;;;;;;;5059314;28;20072;-74
2022/08/14 12:41:05;;;;;;;6.05;4.88;;;;;;;;;;5053446;28;20090;-74
2022/08/14 12:43:32;;;;;;;4.50;4.20;;;;;;;;;;5062177;28;20496;-74
2022/08/14 12:45:58;;;;;;;4.90;4.60;;;;;;;;;;5057902;28;20059;-74
2022/08/14 12:48:27;;;;;;;5.13;4.68;;;;;;;;;;5062471;28;20036;-74
2022/08/14 12:50:53;;;;;;;4.70;4.30;;;;;;;;;;5054729;28;20053;-74
2022/08/14 12:53:20;;;;;;;4.68;4.05;;;;;;;;;;5049811;28;20075;-74
2022/08/14 12:55:57;;;;;;;5.20;4.50;;;;;;;;;;5062724;28;20046;-75
2022/08/14 12:58:27;;;;;;;4.75;4.35;;;;;;;;;;5053849;28;20040;-75
2022/08/14 13:00:54;;;;;;;4.22;3.92;;;;;;;;;;5046188;28;20498;-75
2022/08/14 13:03:27;;;;;;;4.80;4.40;;;;;;;;;;5053607;28;20042;-74
2022/08/14 13:05:53;;;;;;;5.05;4.40;;;;;;;;;;5047697;28;20464;-74
2022/08/14 13:08:21;;;;;;;5.72;4.32;;;;;;;;;;5058160;28;20120;-74
2022/08/14 13:10:47;;;;;;;5.30;4.90;;;;;;;;;;5057193;28;20044;-75
2022/08/14 13:13:15;;;;;;;4.50;3.85;;;;;;;;;;5052786;28;20050;-74
2022/08/14 13:15:44;;;;;;;4.25;3.95;;;;;;;;;;5060965;28;20051;-74
2022/08/14 13:18:11;;;;;;;4.95;4.40;;;;;;;;;;5060599;28;20145;-74
2022/08/14 13:20:37;;;;;;;4.57;4.10;;;;;;;;;;5058083;28;20044;-75
2022/08/14 13:23:03;;;;;;;4.28;3.88;;;;;;;;;;5053002;28;20044;-74
2022/08/14 13:25:29;;;;;;;4.30;4.00;;;;;;;;;;5056836;28;20056;-75
2022/08/14 13:27:56;;;;;;;4.32;4.03;;;;;;;;;;5081402;28;20048;-74
2022/08/14 13:30:26;;;;;;;4.63;4.22;;;;;;;;;;5050676;28;20098;-75
2022/08/14 13:32:53;;;;;;;4.05;3.75;;;;;;;;;;5066254;28;20040;-74
2022/08/14 13:35:19;;;;;;;6.85;4.43;;;;;;;;;;5059439;28;20052;-74
2022/08/14 13:37:48;;;;;;;4.55;4.13;;;;;;;;;;5052866;28;20372;-74
2022/08/14 13:40:15;;;;;;;4.28;3.97;;;;;;;;;;5060033;28;20604;-75
2022/08/14 13:42:43;;;;;;;4.35;4.05;;;;;;;;;;5058578;28;20045;-75
2022/08/14 13:45:10;;;;;;;4.80;4.28;;;;;;;;;;5061140;28;20495;-74
2022/08/14 13:47:36;;;;;;;4.28;3.97;;;;;;;;;;5064418;28;20077;-74
2022/08/14 13:50:04;;;;;;;4.20;3.80;;;;;;;;;;5061230;28;20040;-75
2022/08/14 13:52:33;;;;;;;4.55;4.07;;;;;;;;;;5055179;28;20068;-74
2022/08/14 13:55:02;;;;;;;4.20;3.80;;;;;;;;;;5064828;28;20420;-75
2022/08/14 13:57:28;;;;;;;4.10;3.80;;;;;;;;;;5081473;28;20103;-75
2022/08/14 13:59:54;;;;;;;4.47;4.15;;;;;;;;;;5064143;28;20043;-74
2022/08/14 14:02:21;;;;;;;4.15;3.80;;;;;;;;;;5059033;28;20036;-74
2022/08/14 14:04:48;;;;;;;4.10;3.70;;;;;;;;;;5056509;28;20068;-75
2022/08/14 14:07:20;;;;;;;4.05;3.75;;;;;;;;;;5054353;28;20043;-75
2022/08/14 14:09:47;;;;;;;3.63;3.28;;;;;;;;;;5052441;28;20091;-74
2022/08/14 14:12:14;;;;;;;4.20;3.83;;;;;;;;;;5050312;28;20069;-75
2022/08/14 14:14:41;;;;;;;4.00;3.65;;;;;;;;;;5062822;28;20048;-75
2022/08/14 14:17:09;;;;;;;3.88;3.60;;;;;;;;;;5059618;28;20086;-75
2022/08/14 14:19:35;;;;;;;4.88;3.60;;;;;;;;;;5056001;28;20049;-74
2022/08/14 14:22:02;;;;;;;3.72;3.53;;;;;;;;;;5060752;28;20124;-75
2022/08/14 14:24:28;;;;;;;3.13;2.92;;;;;;;;;;5059201;28;20491;-75
2022/08/14 14:26:58;;;;;;;3.50;3.30;;;;;;;;;;5052083;28;20092;-75
2022/08/14 14:29:25;;;;;;;3.90;3.70;;;;;;;;;;5062941;28;20075;-75
2022/08/14 14:31:51;;;;;;;3.60;3.40;;;;;;;;;;5056292;28;20090;-75
2022/08/14 14:34:21;;;;;;;3.08;2.88;;;;;;;;;;5067679;28;20032;-75
2022/08/14 14:36:49;;;;;;;3.70;3.08;;;;;;;;;;5056924;28;20116;-75
2022/08/14 14:39:16;;;;;;;3.28;2.97;;;;;;;;;;5064745;28;20080;-75
2022/08/14 14:41:42;;;;;;;3.50;3.30;;;;;;;;;;5066330;28;20043;-75
2022/08/14 14:44:10;;;;;;;3.03;2.83;;;;;;;;;;5061058;28;20135;-75
2022/08/14 14:46:39;;;;;;;3.05;2.70;;;;;;;;;;5084323;28;20110;-75
2022/08/14 14:49:12;;;;;;;3.45;2.83;;;;;;;;;;5059113;28;20055;-75
2022/08/14 14:51:39;;;;;;;3.10;2.90;;;;;;;;;;5062347;28;20569;-75
2022/08/14 14:54:07;;;;;;;3.13;2.72;;;;;;;;;;5060767;28;20378;-75
2022/08/14 14:56:33;;;;;;;3.03;2.83;;;;;;;;;;5083002;28;20041;-75
2022/08/14 14:58:59;;;;;;;3.35;2.55;;;;;;;;;;5055685;28;20044;-76